sensor_id;sensor_type;location;lat;lon;timestamp;pressure;altitude;pressure_sealevel;temperature;humidity
35121;BME280;21297;52.008;4.576;2023-06-19T00:01:08;51202.03;;;-143.47;64.59
35121;BME280;21297;52.008;4.576;2023-06-19T00:03:54;51078.06;;;-143.47;65.98
35121;BME280;21297;52.008;4.576;2023-06-19T00:06:40;51099.72;;;-143.47;66.81
35121;BME280;21297;52.008;4.576;2023-06-19T00:09:25;51064.28;;;-143.47;67.44
35121;BME280;21297;52.008;4.576;2023-06-19T00:12:11;51054.47;;;-143.47;67.78
35121;BME280;21297;52.008;4.576;2023-06-19T00:14:59;51082.00;;;-143.47;67.26
35121;BME280;21297;52.008;4.576;2023-06-19T00:17:45;51103.66;;;-143.47;67.67
35121;BME280;21297;52.008;4.576;2023-06-19T00:20:30;51078.06;;;-143.47;68.29
35121;BME280;21297;52.008;4.576;2023-06-19T00:23:16;51050.53;;;-143.47;69.32
35121;BME280;21297;52.008;4.576;2023-06-19T00:26:03;51040.69;;;-143.47;70.15
35121;BME280;21297;52.008;4.576;2023-06-19T00:28:49;51022.97;;;-143.47;70.69
35121;BME280;21297;52.008;4.576;2023-06-19T00:31:34;50967.91;;;-143.47;72.05
35121;BME280;21297;52.008;4.576;2023-06-19T00:34:22;50977.72;;;-143.47;72.41
35121;BME280;21297;52.008;4.576;2023-06-19T00:37:11;50920.69;;;-143.47;74.22
35121;BME280;21297;52.008;4.576;2023-06-19T00:39:58;50930.50;;;-143.47;74.18
35121;BME280;21297;52.008;4.576;2023-06-19T00:42:44;50962.00;;;-143.47;73.93
35121;BME280;21297;52.008;4.576;2023-06-19T00:45:30;50960.03;;;-143.47;74.73
35121;BME280;21297;52.008;4.576;2023-06-19T00:48:15;50963.97;;;-143.47;74.61
35121;BME280;21297;52.008;4.576;2023-06-19T00:51:01;50936.41;;;-143.47;75.04
35121;BME280;21297;52.008;4.576;2023-06-19T00:53:47;50901.00;;;-143.47;76.27
35121;BME280;21297;52.008;4.576;2023-06-19T00:56:33;50873.47;;;-143.47;77.55
35121;BME280;21297;52.008;4.576;2023-06-19T00:59:22;50881.31;;;-143.47;78.20
35121;BME280;21297;52.008;4.576;2023-06-19T01:02:08;50802.63;;;-143.47;79.14
35121;BME280;21297;52.008;4.576;2023-06-19T01:04:54;50822.31;;;-143.47;79.50
35121;BME280;21297;52.008;4.576;2023-06-19T01:07:47;50812.47;;;-143.47;79.25
35121;BME280;21297;52.008;4.576;2023-06-19T01:10:41;50812.47;;;-143.47;80.88
35121;BME280;21297;52.008;4.576;2023-06-19T01:13:47;50745.56;;;-143.47;83.91
35121;BME280;21297;52.008;4.576;2023-06-19T01:16:34;50779.03;;;-143.47;84.91
35121;BME280;21297;52.008;4.576;2023-06-19T01:19:21;50830.19;;;-143.47;84.89
35121;BME280;21297;52.008;4.576;2023-06-19T01:22:07;50810.50;;;-143.47;86.26
35121;BME280;21297;52.008;4.576;2023-06-19T01:24:53;50720.00;;;-143.47;88.68
35121;BME280;21297;52.008;4.576;2023-06-19T01:27:38;50720.00;;;-143.47;89.53
35121;BME280;21297;52.008;4.576;2023-06-19T01:30:25;50731.81;;;-143.47;89.45
35121;BME280;21297;52.008;4.576;2023-06-19T01:33:28;50739.69;;;-143.47;89.38
35121;BME280;21297;52.008;4.576;2023-06-19T01:36:15;50757.38;;;-143.47;90.24
35121;BME280;21297;52.008;4.576;2023-06-19T01:39:03;50769.19;;;-143.47;91.57
35121;BME280;21297;52.008;4.576;2023-06-19T01:41:49;50769.19;;;-143.47;90.89
35121;BME280;21297;52.008;4.576;2023-06-19T01:44:37;50745.56;;;-143.47;92.27
35121;BME280;21297;52.008;4.576;2023-06-19T01:47:23;50773.13;;;-143.47;91.96
35121;BME280;21297;52.008;4.576;2023-06-19T01:50:09;50725.91;;;-143.47;93.41
35121;BME280;21297;52.008;4.576;2023-06-19T01:52:55;50745.56;;;-143.47;93.13
35121;BME280;21297;52.008;4.576;2023-06-19T01:55:41;50708.19;;;-143.47;93.74
35121;BME280;21297;52.008;4.576;2023-06-19T01:58:27;50753.44;;;-143.47;93.22
35121;BME280;21297;52.008;4.576;2023-06-19T02:01:13;50798.69;;;-143.47;92.94
35121;BME280;21297;52.008;4.576;2023-06-19T02:03:59;50777.06;;;-143.47;92.30
35121;BME280;21297;52.008;4.576;2023-06-19T02:06:44;50749.50;;;-143.47;93.30
35121;BME280;21297;52.008;4.576;2023-06-19T02:09:31;50782.97;;;-143.47;92.58
35121;BME280;21297;52.008;4.576;2023-06-19T02:12:16;50826.25;;;-143.47;92.21
35121;BME280;21297;52.008;4.576;2023-06-19T02:15:03;50826.25;;;-143.47;92.60
35121;BME280;21297;52.008;4.576;2023-06-19T02:17:49;50877.41;;;-143.47;93.06
35121;BME280;21297;52.008;4.576;2023-06-19T02:20:40;50920.69;;;-143.47;92.46
35121;BME280;21297;52.008;4.576;2023-06-19T02:23:26;50881.31;;;-143.47;93.87
35121;BME280;21297;52.008;4.576;2023-06-19T02:26:11;50912.81;;;-143.47;94.71
35121;BME280;21297;52.008;4.576;2023-06-19T02:28:57;50908.88;;;-143.47;94.89
35121;BME280;21297;52.008;4.576;2023-06-19T02:31:44;50910.84;;;-143.47;95.74
35121;BME280;21297;52.008;4.576;2023-06-19T02:34:29;50902.97;;;-143.47;97.49
35121;BME280;21297;52.008;4.576;2023-06-19T02:37:15;50893.13;;;-143.47;97.87
35121;BME280;21297;52.008;4.576;2023-06-19T02:40:02;50857.72;;;-143.47;99.30
35121;BME280;21297;52.008;4.576;2023-06-19T02:42:48;50875.44;;;-143.47;99.65
35121;BME280;21297;52.008;4.576;2023-06-19T02:45:34;50881.31;;;-143.47;99.81
35121;BME280;21297;52.008;4.576;2023-06-19T02:48:20;50873.47;;;-143.47;99.85
35121;BME280;21297;52.008;4.576;2023-06-19T02:51:05;50841.97;;;-143.47;100.00
35121;BME280;21297;52.008;4.576;2023-06-19T02:53:51;50859.69;;;-143.47;100.00
35121;BME280;21297;52.008;4.576;2023-06-19T02:56:37;50826.25;;;-143.47;100.00
35121;BME280;21297;52.008;4.576;2023-06-19T02:59:24;50885.25;;;-143.47;100.00
35121;BME280;21297;52.008;4.576;2023-06-19T03:02:09;50901.00;;;-143.47;100.00
35121;BME280;21297;52.008;4.576;2023-06-19T03:04:55;50855.75;;;-143.47;100.00
35121;BME280;21297;52.008;4.576;2023-06-19T03:07:41;50828.22;;;-143.47;100.00
35121;BME280;21297;52.008;4.576;2023-06-19T03:10:27;50836.06;;;-143.47;100.00
35121;BME280;21297;52.008;4.576;2023-06-19T03:13:13;50847.88;;;-143.47;100.00
35121;BME280;21297;52.008;4.576;2023-06-19T03:15:59;50822.31;;;-143.47;100.00
35121;BME280;21297;52.008;4.576;2023-06-19T03:18:45;50857.72;;;-143.47;100.00
35121;BME280;21297;52.008;4.576;2023-06-19T03:21:31;50782.97;;;-143.47;100.00
35121;BME280;21297;52.008;4.576;2023-06-19T03:24:16;50735.75;;;-143.47;100.00
35121;BME280;21297;52.008;4.576;2023-06-19T03:27:02;50747.53;;;-143.47;100.00
35121;BME280;21297;52.008;4.576;2023-06-19T03:29:48;50733.78;;;-143.47;100.00
35121;BME280;21297;52.008;4.576;2023-06-19T03:32:34;50708.19;;;-143.47;100.00
35121;BME280;21297;52.008;4.576;2023-06-19T03:35:19;50747.53;;;-143.47;100.00
35121;BME280;21297;52.008;4.576;2023-06-19T03:38:05;50710.16;;;-143.47;100.00
35121;BME280;21297;52.008;4.576;2023-06-19T03:40:51;50696.41;;;-143.47;100.00
35121;BME280;21297;52.008;4.576;2023-06-19T03:43:39;50755.41;;;-143.47;100.00
35121;BME280;21297;52.008;4.576;2023-06-19T03:46:25;50723.94;;;-143.47;100.00
35121;BME280;21297;52.008;4.576;2023-06-19T03:49:10;50704.25;;;-143.47;100.00
35121;BME280;21297;52.008;4.576;2023-06-19T03:51:59;50690.50;;;-143.47;100.00
35121;BME280;21297;52.008;4.576;2023-06-19T03:54:45;50700.34;;;-143.47;99.95
35121;BME280;21297;52.008;4.576;2023-06-19T03:57:30;50692.47;;;-143.47;99.13
35121;BME280;21297;52.008;4.576;2023-06-19T04:00:16;50710.16;;;-143.47;99.46
35121;BME280;21297;52.008;4.576;2023-06-19T04:03:03;50723.94;;;-143.47;97.40
35121;BME280;21297;52.008;4.576;2023-06-19T04:05:52;50704.25;;;-143.47;96.54
35121;BME280;21297;52.008;4.576;2023-06-19T04:08:37;50666.88;;;-143.47;95.90
35121;BME280;21297;52.008;4.576;2023-06-19T04:11:23;50659.03;;;-143.47;96.27
35121;BME280;21297;52.008;4.576;2023-06-19T04:14:09;50649.19;;;-143.47;95.17
35121;BME280;21297;52.008;4.576;2023-06-19T04:16:55;50674.75;;;-143.47;95.42
35121;BME280;21297;52.008;4.576;2023-06-19T04:19:41;50647.22;;;-143.47;94.40
35121;BME280;21297;52.008;4.576;2023-06-19T04:22:27;50641.31;;;-143.47;95.83
35121;BME280;21297;52.008;4.576;2023-06-19T04:25:12;50615.75;;;-143.47;94.96
35121;BME280;21297;52.008;4.576;2023-06-19T04:27:58;50625.56;;;-143.47;95.54
35121;BME280;21297;52.008;4.576;2023-06-19T04:30:44;50655.09;;;-143.47;96.58
35121;BME280;21297;52.008;4.576;2023-06-19T04:33:29;50619.66;;;-143.47;97.11
35121;BME280;21297;52.008;4.576;2023-06-19T04:36:15;50653.13;;;-143.47;97.02
35121;BME280;21297;52.008;4.576;2023-06-19T04:39:01;50613.78;;;-143.47;95.29
35121;BME280;21297;52.008;4.576;2023-06-19T04:41:47;50662.94;;;-143.47;93.39
35121;BME280;21297;52.008;4.576;2023-06-19T04:44:32;50639.34;;;-143.47;93.41
35121;BME280;21297;52.008;4.576;2023-06-19T04:47:22;50566.56;;;-143.47;93.50
35121;BME280;21297;52.008;4.576;2023-06-19T04:50:08;50564.59;;;-143.47;95.05
35121;BME280;21297;52.008;4.576;2023-06-19T04:52:54;50588.19;;;-143.47;93.91
35121;BME280;21297;52.008;4.576;2023-06-19T04:55:39;50600.00;;;-143.47;94.08
35121;BME280;21297;52.008;4.576;2023-06-19T04:58:25;50605.91;;;-143.47;92.96
35121;BME280;21297;52.008;4.576;2023-06-19T05:01:14;50605.91;;;-143.47;92.95
35121;BME280;21297;52.008;4.576;2023-06-19T05:04:00;50655.09;;;-143.47;91.34
35121;BME280;21297;52.008;4.576;2023-06-19T05:06:46;50629.50;;;-143.47;91.20
35121;BME280;21297;52.008;4.576;2023-06-19T05:09:32;50605.91;;;-143.47;90.41
35121;BME280;21297;52.008;4.576;2023-06-19T05:12:17;50621.63;;;-143.47;90.39
35121;BME280;21297;52.008;4.576;2023-06-19T05:15:03;50649.19;;;-143.47;90.01
35121;BME280;21297;52.008;4.576;2023-06-19T05:17:49;50621.63;;;-143.47;90.80
35121;BME280;21297;52.008;4.576;2023-06-19T05:20:35;50613.78;;;-143.47;90.40
35121;BME280;21297;52.008;4.576;2023-06-19T05:23:21;50617.72;;;-143.47;90.83
35121;BME280;21297;52.008;4.576;2023-06-19T05:26:06;50655.09;;;-143.47;90.62
35121;BME280;21297;52.008;4.576;2023-06-19T05:28:52;50655.09;;;-143.47;90.79
35121;BME280;21297;52.008;4.576;2023-06-19T05:31:38;50641.31;;;-143.47;88.97
35121;BME280;21297;52.008;4.576;2023-06-19T05:34:23;50672.78;;;-143.47;89.32
35121;BME280;21297;52.008;4.576;2023-06-19T05:37:09;50627.53;;;-143.47;88.42
35121;BME280;21297;52.008;4.576;2023-06-19T05:39:55;50582.28;;;-143.47;88.75
35121;BME280;21297;52.008;4.576;2023-06-19T05:42:41;50607.88;;;-143.47;89.13
35121;BME280;21297;52.008;4.576;2023-06-19T05:45:26;50552.78;;;-143.47;88.93
35121;BME280;21297;52.008;4.576;2023-06-19T05:48:15;50554.75;;;-143.47;88.62
35121;BME280;21297;52.008;4.576;2023-06-19T05:51:00;50544.91;;;-143.47;88.52
35121;BME280;21297;52.008;4.576;2023-06-19T05:53:46;50601.97;;;-143.47;88.63
35121;BME280;21297;52.008;4.576;2023-06-19T05:56:32;50560.66;;;-143.47;86.94
35121;BME280;21297;52.008;4.576;2023-06-19T05:59:18;50546.88;;;-143.47;87.27
35121;BME280;21297;52.008;4.576;2023-06-19T06:02:04;50531.16;;;-143.47;87.51
35121;BME280;21297;52.008;4.576;2023-06-19T06:04:51;50533.13;;;-143.47;87.08
35121;BME280;21297;52.008;4.576;2023-06-19T06:07:37;50519.34;;;-143.47;86.09
35121;BME280;21297;52.008;4.576;2023-06-19T06:10:24;50462.28;;;-143.47;86.23
35121;BME280;21297;52.008;4.576;2023-06-19T06:13:10;50527.22;;;-143.47;86.81
35121;BME280;21297;52.008;4.576;2023-06-19T06:15:56;50491.81;;;-143.47;86.92
35121;BME280;21297;52.008;4.576;2023-06-19T06:18:41;50495.75;;;-143.47;86.43
35121;BME280;21297;52.008;4.576;2023-06-19T06:21:27;50533.13;;;-143.47;87.11
35121;BME280;21297;52.008;4.576;2023-06-19T06:24:13;50527.22;;;-143.47;87.32
35121;BME280;21297;52.008;4.576;2023-06-19T06:26:58;50546.88;;;-143.47;86.57
35121;BME280;21297;52.008;4.576;2023-06-19T06:29:44;50548.84;;;-143.47;85.00
35121;BME280;21297;52.008;4.576;2023-06-19T06:32:30;50617.72;;;-143.47;83.20
35121;BME280;21297;52.008;4.576;2023-06-19T06:35:16;50600.00;;;-143.47;82.90
35121;BME280;21297;52.008;4.576;2023-06-19T06:38:02;50613.78;;;-143.47;82.16
35121;BME280;21297;52.008;4.576;2023-06-19T06:40:48;50600.00;;;-143.47;82.19
35121;BME280;21297;52.008;4.576;2023-06-19T06:43:34;50613.78;;;-143.47;81.58
35121;BME280;21297;52.008;4.576;2023-06-19T06:46:20;50619.66;;;-143.47;81.58
35121;BME280;21297;52.008;4.576;2023-06-19T06:49:08;50586.22;;;-143.47;80.08
35121;BME280;21297;52.008;4.576;2023-06-19T06:51:54;50613.78;;;-143.47;80.98
35121;BME280;21297;52.008;4.576;2023-06-19T06:54:41;50625.56;;;-143.47;80.65
35121;BME280;21297;52.008;4.576;2023-06-19T06:57:26;50625.56;;;-143.47;79.92
35121;BME280;21297;52.008;4.576;2023-06-19T07:00:12;50586.22;;;-143.47;80.74
35121;BME280;21297;52.008;4.576;2023-06-19T07:02:58;50661.00;;;-143.47;80.41
35121;BME280;21297;52.008;4.576;2023-06-19T07:05:48;50688.53;;;-143.47;79.16
35121;BME280;21297;52.008;4.576;2023-06-19T07:08:34;50649.19;;;-143.47;79.19
35121;BME280;21297;52.008;4.576;2023-06-19T07:11:22;50661.00;;;-143.47;78.92
35121;BME280;21297;52.008;4.576;2023-06-19T07:14:08;50678.69;;;-143.47;79.39
35121;BME280;21297;52.008;4.576;2023-06-19T07:16:53;50725.91;;;-143.47;79.00
35121;BME280;21297;52.008;4.576;2023-06-19T07:19:39;50680.66;;;-143.47;79.06
35121;BME280;21297;52.008;4.576;2023-06-19T07:22:28;50721.97;;;-143.47;79.82
35121;BME280;21297;52.008;4.576;2023-06-19T07:25:13;50767.22;;;-143.47;80.09
35121;BME280;21297;52.008;4.576;2023-06-19T07:28:02;50871.50;;;-143.47;78.85
35121;BME280;21297;52.008;4.576;2023-06-19T07:30:49;50910.84;;;-143.47;76.08
35121;BME280;21297;52.008;4.576;2023-06-19T07:33:37;50967.91;;;-143.47;73.61
35121;BME280;21297;52.008;4.576;2023-06-19T07:36:23;50965.94;;;-143.47;74.36
35121;BME280;21297;52.008;4.576;2023-06-19T07:39:09;50952.16;;;-143.47;74.60
35121;BME280;21297;52.008;4.576;2023-06-19T07:41:55;50971.81;;;-143.47;74.54
35121;BME280;21297;52.008;4.576;2023-06-19T07:44:41;51026.91;;;-143.47;73.26
35121;BME280;21297;52.008;4.576;2023-06-19T07:47:26;51133.16;;;-143.47;73.81
35121;BME280;21297;52.008;4.576;2023-06-19T07:50:12;51184.31;;;-143.47;72.05
35121;BME280;21297;52.008;4.576;2023-06-19T07:52:58;51211.88;;;-143.47;70.97
35121;BME280;21297;52.008;4.576;2023-06-19T07:55:43;51239.41;;;-143.47;68.45
35121;BME280;21297;52.008;4.576;2023-06-19T07:58:29;51207.94;;;-143.47;69.63
35121;BME280;21297;52.008;4.576;2023-06-19T08:01:15;51148.91;;;-143.47;68.47
35121;BME280;21297;52.008;4.576;2023-06-19T08:04:02;51168.56;;;-143.47;70.79
35121;BME280;21297;52.008;4.576;2023-06-19T08:06:48;51150.88;;;-143.47;70.35
35121;BME280;21297;52.008;4.576;2023-06-19T08:09:34;51129.22;;;-143.47;69.24
35121;BME280;21297;52.008;4.576;2023-06-19T08:12:19;51117.41;;;-143.47;68.80
35121;BME280;21297;52.008;4.576;2023-06-19T08:15:05;51089.88;;;-143.47;68.15
35121;BME280;21297;52.008;4.576;2023-06-19T08:17:51;51168.56;;;-143.47;69.20
35121;BME280;21297;52.008;4.576;2023-06-19T08:20:37;51200.06;;;-143.47;69.28
35121;BME280;21297;52.008;4.576;2023-06-19T08:23:23;51139.06;;;-143.47;68.90
35121;BME280;21297;52.008;4.576;2023-06-19T08:26:09;51154.81;;;-143.47;67.72
35121;BME280;21297;52.008;4.576;2023-06-19T08:28:55;51107.59;;;-143.47;67.55
35121;BME280;21297;52.008;4.576;2023-06-19T08:31:40;51062.34;;;-143.47;68.11
35121;BME280;21297;52.008;4.576;2023-06-19T08:34:27;51093.81;;;-143.47;67.70
35121;BME280;21297;52.008;4.576;2023-06-19T08:37:12;51172.50;;;-143.47;68.54
35121;BME280;21297;52.008;4.576;2023-06-19T08:39:58;51217.75;;;-143.47;67.88
35121;BME280;21297;52.008;4.576;2023-06-19T08:42:45;51200.06;;;-143.47;67.84
35121;BME280;21297;52.008;4.576;2023-06-19T08:45:30;51290.56;;;-143.47;68.07
35121;BME280;21297;52.008;4.576;2023-06-19T08:48:16;51306.31;;;-143.47;66.77
35121;BME280;21297;52.008;4.576;2023-06-19T08:51:03;51385.00;;;-143.47;65.40
35121;BME280;21297;52.008;4.576;2023-06-19T08:53:55;51381.06;;;-143.47;65.57
35121;BME280;21297;52.008;4.576;2023-06-19T08:56:40;51383.03;;;-143.47;64.85
35121;BME280;21297;52.008;4.576;2023-06-19T08:59:26;51343.69;;;-143.47;64.85
35121;BME280;21297;52.008;4.576;2023-06-19T09:02:13;51314.19;;;-143.47;66.64
35121;BME280;21297;52.008;4.576;2023-06-19T09:05:17;51329.91;;;-143.47;66.43
35121;BME280;21297;52.008;4.576;2023-06-19T09:08:03;51329.91;;;-143.47;67.12
35121;BME280;21297;52.008;4.576;2023-06-19T09:11:03;51341.72;;;-143.47;66.52
35121;BME280;21297;52.008;4.576;2023-06-19T09:13:56;51381.06;;;-143.47;66.66
35121;BME280;21297;52.008;4.576;2023-06-19T09:16:42;51363.38;;;-143.47;67.01
35121;BME280;21297;52.008;4.576;2023-06-19T09:19:27;51363.38;;;-143.47;65.60
35121;BME280;21297;52.008;4.576;2023-06-19T09:22:13;51357.47;;;-143.47;66.38
35121;BME280;21297;52.008;4.576;2023-06-19T09:25:02;51406.66;;;-143.47;66.23
35121;BME280;21297;52.008;4.576;2023-06-19T09:27:48;51381.06;;;-143.47;65.18
35121;BME280;21297;52.008;4.576;2023-06-19T09:30:34;51386.97;;;-143.47;65.57
35121;BME280;21297;52.008;4.576;2023-06-19T09:33:20;51385.00;;;-143.47;65.65
35121;BME280;21297;52.008;4.576;2023-06-19T09:36:06;51396.81;;;-143.47;66.14
35121;BME280;21297;52.008;4.576;2023-06-19T09:38:52;51461.75;;;-143.47;64.22
35121;BME280;21297;52.008;4.576;2023-06-19T09:41:39;51522.75;;;-143.47;62.31
35121;BME280;21297;52.008;4.576;2023-06-19T09:44:27;51569.97;;;-143.47;61.71
35121;BME280;21297;52.008;4.576;2023-06-19T09:47:17;51625.06;;;-143.47;62.65
35121;BME280;21297;52.008;4.576;2023-06-19T09:50:06;51609.31;;;-143.47;62.84
35121;BME280;21297;52.008;4.576;2023-06-19T09:52:52;51577.84;;;-143.47;62.53
35121;BME280;21297;52.008;4.576;2023-06-19T09:55:38;51550.28;;;-143.47;62.84
35121;BME280;21297;52.008;4.576;2023-06-19T09:58:24;51546.34;;;-143.47;62.96
35121;BME280;21297;52.008;4.576;2023-06-19T10:01:11;51566.03;;;-143.47;63.12
35121;BME280;21297;52.008;4.576;2023-06-19T10:04:08;51593.59;;;-143.47;62.86
35121;BME280;21297;52.008;4.576;2023-06-19T10:06:54;51713.63;;;-143.47;62.10
35121;BME280;21297;52.008;4.576;2023-06-19T10:09:54;51859.25;;;-143.47;61.61
35121;BME280;21297;52.008;4.576;2023-06-19T10:12:42;51998.97;;;-143.47;60.80
35121;BME280;21297;52.008;4.576;2023-06-19T10:15:29;52026.50;;;-143.47;58.48
35121;BME280;21297;52.008;4.576;2023-06-19T10:18:18;52034.38;;;-143.47;57.50
35121;BME280;21297;52.008;4.576;2023-06-19T10:21:15;51967.47;;;-143.47;57.89
35121;BME280;21297;52.008;4.576;2023-06-19T10:24:01;51951.72;;;-143.47;57.61
35121;BME280;21297;52.008;4.576;2023-06-19T10:27:01;51975.34;;;-143.47;58.76
35121;BME280;21297;52.008;4.576;2023-06-19T10:29:53;51981.25;;;-143.47;59.17
35121;BME280;21297;52.008;4.576;2023-06-19T10:32:39;51936.00;;;-143.47;57.86
35121;BME280;21297;52.008;4.576;2023-06-19T10:35:25;51888.75;;;-143.47;57.14
35121;BME280;21297;52.008;4.576;2023-06-19T10:38:10;51845.47;;;-143.47;58.15
35121;BME280;21297;52.008;4.576;2023-06-19T10:40:59;51813.97;;;-143.47;59.65
35121;BME280;21297;52.008;4.576;2023-06-19T10:46:42;51849.41;;;-143.47;58.48
35121;BME280;21297;52.008;4.576;2023-06-19T10:49:28;51904.50;;;-143.47;58.93
35121;BME280;21297;52.008;4.576;2023-06-19T10:52:13;52046.19;;;-143.47;57.57
35121;BME280;21297;52.008;4.576;2023-06-19T10:55:03;52050.13;;;-143.47;56.76
35121;BME280;21297;52.008;4.576;2023-06-19T10:57:50;52217.41;;;-143.47;57.67
35121;BME280;21297;52.008;4.576;2023-06-19T11:00:35;52331.56;;;-143.47;55.53
35121;BME280;21297;52.008;4.576;2023-06-19T11:03:21;52384.69;;;-143.47;54.95
35121;BME280;21297;52.008;4.576;2023-06-19T11:06:07;52378.78;;;-143.47;54.39
35121;BME280;21297;52.008;4.576;2023-06-19T11:08:52;52341.41;;;-143.47;54.89
35121;BME280;21297;52.008;4.576;2023-06-19T11:11:40;52500.81;;;-143.47;55.27
35121;BME280;21297;52.008;4.576;2023-06-19T11:14:29;52674.03;;;-143.47;53.66
35121;BME280;21297;52.008;4.576;2023-06-19T11:17:16;52622.84;;;-143.47;52.41
35121;BME280;21297;52.008;4.576;2023-06-19T11:20:04;52587.41;;;-143.47;51.15
35121;BME280;21297;52.008;4.576;2023-06-19T11:22:59;52565.78;;;-143.47;52.92
35121;BME280;21297;52.008;4.576;2023-06-19T11:25:45;52614.97;;;-143.47;49.96
35121;BME280;21297;52.008;4.576;2023-06-19T11:28:32;52439.81;;;-143.47;49.26
35121;BME280;21297;52.008;4.576;2023-06-19T11:31:25;52754.72;;;-143.47;50.94
35121;BME280;21297;52.008;4.576;2023-06-19T11:34:11;52890.53;;;-143.47;48.84
35121;BME280;21297;52.008;4.576;2023-06-19T11:36:57;52880.69;;;-143.47;48.12
35121;BME280;21297;52.008;4.576;2023-06-19T11:39:47;52798.03;;;-143.47;47.92
35121;BME280;21297;52.008;4.576;2023-06-19T11:42:44;52825.59;;;-143.47;48.08
35121;BME280;21297;52.008;4.576;2023-06-19T11:45:29;52961.41;;;-143.47;46.73
35121;BME280;21297;52.008;4.576;2023-06-19T11:48:25;53077.53;;;-143.47;46.18
35121;BME280;21297;52.008;4.576;2023-06-19T11:51:10;53238.97;;;-143.47;45.89
35121;BME280;21297;52.008;4.576;2023-06-19T11:53:56;53325.56;;;-143.47;45.73
35121;BME280;21297;52.008;4.576;2023-06-19T11:56:42;53329.50;;;-143.47;43.74
35121;BME280;21297;52.008;4.576;2023-06-19T11:59:27;53211.41;;;-143.47;44.45
35121;BME280;21297;52.008;4.576;2023-06-19T12:02:13;53254.72;;;-143.47;45.67
35121;BME280;21297;52.008;4.576;2023-06-19T12:04:59;53055.88;;;-143.47;44.64
35121;BME280;21297;52.008;4.576;2023-06-19T12:07:45;52900.38;;;-143.47;45.75
35121;BME280;21297;52.008;4.576;2023-06-19T12:10:31;52951.56;;;-143.47;45.83
35121;BME280;21297;52.008;4.576;2023-06-19T12:13:16;52841.34;;;-143.47;46.11
35121;BME280;21297;52.008;4.576;2023-06-19T12:16:02;52719.28;;;-143.47;46.42
35121;BME280;21297;52.008;4.576;2023-06-19T12:18:49;52656.31;;;-143.47;47.06
35121;BME280;21297;52.008;4.576;2023-06-19T12:21:34;52845.25;;;-143.47;47.98
35121;BME280;21297;52.008;4.576;2023-06-19T12:24:20;52981.09;;;-143.47;45.90
35121;BME280;21297;52.008;4.576;2023-06-19T12:27:06;52975.19;;;-143.47;45.52
35121;BME280;21297;52.008;4.576;2023-06-19T12:29:52;53130.69;;;-143.47;44.81
35121;BME280;21297;52.008;4.576;2023-06-19T12:32:38;53177.94;;;-143.47;45.56
35121;BME280;21297;52.008;4.576;2023-06-19T12:35:23;53172.03;;;-143.47;44.83
35121;BME280;21297;52.008;4.576;2023-06-19T12:38:09;52998.81;;;-143.47;44.50
35121;BME280;21297;52.008;4.576;2023-06-19T12:40:55;53124.78;;;-143.47;45.23
35121;BME280;21297;52.008;4.576;2023-06-19T12:43:41;53311.78;;;-143.47;44.33
35121;BME280;21297;52.008;4.576;2023-06-19T12:46:27;53325.56;;;-143.47;43.50
35121;BME280;21297;52.008;4.576;2023-06-19T12:49:12;53292.09;;;-143.47;44.75
35121;BME280;21297;52.008;4.576;2023-06-19T12:51:58;53516.53;;;-143.47;42.99
35121;BME280;21297;52.008;4.576;2023-06-19T12:54:44;53672.06;;;-143.47;42.35
35121;BME280;21297;52.008;4.576;2023-06-19T12:57:29;53855.16;;;-143.47;41.76
35121;BME280;21297;52.008;4.576;2023-06-19T13:00:15;53674.03;;;-143.47;41.58
35121;BME280;21297;52.008;4.576;2023-06-19T13:03:01;53603.16;;;-143.47;42.25
35121;BME280;21297;52.008;4.576;2023-06-19T13:05:47;53246.84;;;-143.47;42.75
35121;BME280;21297;52.008;4.576;2023-06-19T13:08:32;53337.38;;;-143.47;42.55
35121;BME280;21297;52.008;4.576;2023-06-19T13:11:18;53607.09;;;-143.47;42.75
35121;BME280;21297;52.008;4.576;2023-06-19T13:14:04;53774.44;;;-143.47;40.39
35121;BME280;21297;52.008;4.576;2023-06-19T13:16:50;53270.47;;;-143.47;41.47
35121;BME280;21297;52.008;4.576;2023-06-19T13:19:35;53136.59;;;-143.47;42.98
35121;BME280;21297;52.008;4.576;2023-06-19T13:22:21;52813.78;;;-143.47;44.18
35121;BME280;21297;52.008;4.576;2023-06-19T13:25:07;53276.38;;;-143.47;43.51
35121;BME280;21297;52.008;4.576;2023-06-19T13:27:53;53475.19;;;-143.47;41.50
35121;BME280;21297;52.008;4.576;2023-06-19T13:30:38;53345.25;;;-143.47;41.77
35121;BME280;21297;52.008;4.576;2023-06-19T13:33:25;52740.94;;;-143.47;43.59
35121;BME280;21297;52.008;4.576;2023-06-19T13:36:11;52514.59;;;-143.47;46.44
35121;BME280;21297;52.008;4.576;2023-06-19T13:38:56;53038.16;;;-143.47;43.87
35121;BME280;21297;52.008;4.576;2023-06-19T13:41:42;53168.09;;;-143.47;42.85
35121;BME280;21297;52.008;4.576;2023-06-19T13:44:28;53044.06;;;-143.47;42.82
35121;BME280;21297;52.008;4.576;2023-06-19T13:47:14;52896.44;;;-143.47;45.04
35121;BME280;21297;52.008;4.576;2023-06-19T13:49:59;53305.88;;;-143.47;42.66
35121;BME280;21297;52.008;4.576;2023-06-19T13:52:46;53207.47;;;-143.47;43.99
35121;BME280;21297;52.008;4.576;2023-06-19T13:55:31;53583.47;;;-143.47;43.73
35121;BME280;21297;52.008;4.576;2023-06-19T13:58:17;53831.53;;;-143.47;41.77
35121;BME280;21297;52.008;4.576;2023-06-19T14:01:03;53945.72;;;-143.47;41.05
35121;BME280;21297;52.008;4.576;2023-06-19T14:03:48;53861.06;;;-143.47;39.96
35121;BME280;21297;52.008;4.576;2023-06-19T14:06:34;53872.88;;;-143.47;40.54
35121;BME280;21297;52.008;4.576;2023-06-19T14:09:21;53695.69;;;-143.47;39.67
35121;BME280;21297;52.008;4.576;2023-06-19T14:12:07;53878.78;;;-143.47;40.12
35121;BME280;21297;52.008;4.576;2023-06-19T14:14:53;53928.00;;;-143.47;40.86
35121;BME280;21297;52.008;4.576;2023-06-19T14:17:39;54140.66;;;-143.47;39.10
35121;BME280;21297;52.008;4.576;2023-06-19T14:20:26;54235.19;;;-143.47;37.96
35121;BME280;21297;52.008;4.576;2023-06-19T14:23:12;54357.25;;;-143.47;38.94